South Dartmouth, Massachusetts
Current Conditions -  °F | °C
As of 9:27 AM on Thursday 23 Oct 2014 (Local Time) from KEWB Reporting Station
Overcast Overcast  
Wind Chill: 56°   Ceiling: 1000
Heat Index: 56°   Visibility: 10mi
Dew Point: 52°   Wind: 12mph
Humidity: 87%   Direction: 360°N
Pressure: 29.57"   Gusts: 21mph
Location:  41.6°N, 70.94°W
Report Text: KEWB 231327Z 36010G18KT 10SM OVC010 13/11 A2957 RMK AO2 T01330111
Loading
Personal Weather Stations






























Interactive Weather Map
Tropical Storm Tracking
New forecast layout! Learn more

10-Day Weather Forecast

Advertisements
Track Severe Weather on mobile